sensor_id;sensor_type;location;lat;lon;timestamp;P1;durP1;ratioP1;P2;durP2;ratioP2
16727;SDS011;8482;54.396;18.590;2022-12-18T15:40:00;13.43;;;5.10;;
16727;SDS011;8482;54.396;18.590;2022-12-18T15:42:27;13.93;;;5.30;;
16727;SDS011;8482;54.396;18.590;2022-12-18T15:45:13;10.20;;;4.67;;
16727;SDS011;8482;54.396;18.590;2022-12-18T15:47:39;12.20;;;4.83;;
16727;SDS011;8482;54.396;18.590;2022-12-18T15:50:09;11.37;;;4.97;;
16727;SDS011;8482;54.396;18.590;2022-12-18T15:52:45;13.40;;;6.00;;
16727;SDS011;8482;54.396;18.590;2022-12-18T15:55:15;11.73;;;5.70;;
16727;SDS011;8482;54.396;18.590;2022-12-18T15:58:06;14.57;;;6.40;;
16727;SDS011;8482;54.396;18.590;2022-12-18T16:00:35;13.67;;;5.20;;
16727;SDS011;8482;54.396;18.590;2022-12-18T16:03:04;14.40;;;5.67;;
16727;SDS011;8482;54.396;18.590;2022-12-18T16:05:31;15.33;;;6.73;;
16727;SDS011;8482;54.396;18.590;2022-12-18T16:07:57;14.70;;;5.90;;
16727;SDS011;8482;54.396;18.590;2022-12-18T16:10:24;14.60;;;5.57;;
16727;SDS011;8482;54.396;18.590;2022-12-18T16:12:51;11.50;;;5.37;;
16727;SDS011;8482;54.396;18.590;2022-12-18T16:15:17;12.70;;;5.57;;
16727;SDS011;8482;54.396;18.590;2022-12-18T16:17:43;12.83;;;6.43;;
16727;SDS011;8482;54.396;18.590;2022-12-18T16:20:15;12.30;;;5.33;;
16727;SDS011;8482;54.396;18.590;2022-12-18T16:22:43;13.13;;;5.37;;
16727;SDS011;8482;54.396;18.590;2022-12-18T16:25:21;14.57;;;5.70;;
16727;SDS011;8482;54.396;18.590;2022-12-18T16:27:50;11.50;;;5.13;;
16727;SDS011;8482;54.396;18.590;2022-12-18T16:30:21;15.80;;;5.73;;
16727;SDS011;8482;54.396;18.590;2022-12-18T16:32:52;14.60;;;5.30;;
16727;SDS011;8482;54.396;18.590;2022-12-18T16:35:22;12.10;;;4.87;;
16727;SDS011;8482;54.396;18.590;2022-12-18T16:37:49;16.87;;;6.30;;
16727;SDS011;8482;54.396;18.590;2022-12-18T16:40:15;14.87;;;6.23;;
16727;SDS011;8482;54.396;18.590;2022-12-18T16:42:42;13.80;;;6.40;;
16727;SDS011;8482;54.396;18.590;2022-12-18T16:45:11;14.07;;;6.37;;
16727;SDS011;8482;54.396;18.590;2022-12-18T16:47:41;16.13;;;5.93;;
16727;SDS011;8482;54.396;18.590;2022-12-18T16:50:08;20.37;;;7.27;;
16727;SDS011;8482;54.396;18.590;2022-12-18T16:52:35;17.43;;;6.43;;
16727;SDS011;8482;54.396;18.590;2022-12-18T16:55:02;13.63;;;6.23;;
16727;SDS011;8482;54.396;18.590;2022-12-18T16:57:28;16.27;;;6.53;;
16727;SDS011;8482;54.396;18.590;2022-12-18T16:59:54;17.80;;;6.63;;
16727;SDS011;8482;54.396;18.590;2022-12-18T17:02:24;15.27;;;5.73;;
16727;SDS011;8482;54.396;18.590;2022-12-18T17:04:52;13.90;;;5.90;;
16727;SDS011;8482;54.396;18.590;2022-12-18T17:07:20;16.33;;;6.73;;
16727;SDS011;8482;54.396;18.590;2022-12-18T17:09:46;16.03;;;5.97;;
16727;SDS011;8482;54.396;18.590;2022-12-18T17:12:11;15.73;;;6.30;;
16727;SDS011;8482;54.396;18.590;2022-12-18T17:14:37;15.23;;;6.60;;
16727;SDS011;8482;54.396;18.590;2022-12-18T17:17:03;15.10;;;6.03;;
16727;SDS011;8482;54.396;18.590;2022-12-18T17:19:30;14.60;;;6.57;;
16727;SDS011;8482;54.396;18.590;2022-12-18T17:21:56;16.67;;;6.83;;
16727;SDS011;8482;54.396;18.590;2022-12-18T17:24:23;16.40;;;6.90;;
16727;SDS011;8482;54.396;18.590;2022-12-18T17:26:49;17.00;;;7.20;;
16727;SDS011;8482;54.396;18.590;2022-12-18T17:29:16;15.83;;;7.23;;
16727;SDS011;8482;54.396;18.590;2022-12-18T17:31:44;17.83;;;7.40;;
16727;SDS011;8482;54.396;18.590;2022-12-18T17:34:11;16.27;;;7.10;;
16727;SDS011;8482;54.396;18.590;2022-12-18T17:36:39;18.10;;;7.27;;
16727;SDS011;8482;54.396;18.590;2022-12-18T17:39:05;18.23;;;7.57;;
16727;SDS011;8482;54.396;18.590;2022-12-18T17:41:32;15.43;;;7.20;;
16727;SDS011;8482;54.396;18.590;2022-12-18T17:44:00;17.87;;;6.97;;
16727;SDS011;8482;54.396;18.590;2022-12-18T17:46:30;18.60;;;8.03;;
16727;SDS011;8482;54.396;18.590;2022-12-18T17:48:58;15.20;;;6.57;;
16727;SDS011;8482;54.396;18.590;2022-12-18T17:51:27;16.67;;;6.63;;
16727;SDS011;8482;54.396;18.590;2022-12-18T17:53:54;17.27;;;7.63;;
16727;SDS011;8482;54.396;18.590;2022-12-18T17:56:20;18.63;;;7.20;;
16727;SDS011;8482;54.396;18.590;2022-12-18T17:58:48;14.90;;;7.50;;
16727;SDS011;8482;54.396;18.590;2022-12-18T18:01:15;19.00;;;8.63;;
16727;SDS011;8482;54.396;18.590;2022-12-18T18:03:48;18.53;;;8.50;;
16727;SDS011;8482;54.396;18.590;2022-12-18T18:06:14;18.70;;;8.23;;
16727;SDS011;8482;54.396;18.590;2022-12-18T18:08:40;19.83;;;8.03;;
16727;SDS011;8482;54.396;18.590;2022-12-18T18:11:08;17.67;;;8.40;;
16727;SDS011;8482;54.396;18.590;2022-12-18T18:13:57;17.40;;;8.13;;
16727;SDS011;8482;54.396;18.590;2022-12-18T18:16:29;18.00;;;7.73;;
16727;SDS011;8482;54.396;18.590;2022-12-18T18:19:02;17.07;;;7.53;;
16727;SDS011;8482;54.396;18.590;2022-12-18T18:21:37;14.80;;;6.43;;
16727;SDS011;8482;54.396;18.590;2022-12-18T18:24:05;19.07;;;8.13;;
16727;SDS011;8482;54.396;18.590;2022-12-18T18:26:32;20.60;;;8.50;;
16727;SDS011;8482;54.396;18.590;2022-12-18T18:29:00;17.90;;;8.23;;
16727;SDS011;8482;54.396;18.590;2022-12-18T18:31:29;17.00;;;7.87;;
16727;SDS011;8482;54.396;18.590;2022-12-18T18:33:59;15.80;;;7.17;;
16727;SDS011;8482;54.396;18.590;2022-12-18T18:36:25;23.20;;;10.67;;
16727;SDS011;8482;54.396;18.590;2022-12-18T18:38:52;18.60;;;8.27;;
16727;SDS011;8482;54.396;18.590;2022-12-18T18:41:19;19.00;;;8.57;;
16727;SDS011;8482;54.396;18.590;2022-12-18T18:43:46;19.73;;;8.97;;
16727;SDS011;8482;54.396;18.590;2022-12-18T18:46:13;21.10;;;8.77;;
16727;SDS011;8482;54.396;18.590;2022-12-18T18:48:40;20.40;;;9.53;;
16727;SDS011;8482;54.396;18.590;2022-12-18T18:51:13;20.73;;;9.03;;
16727;SDS011;8482;54.396;18.590;2022-12-18T18:53:43;21.47;;;9.80;;
16727;SDS011;8482;54.396;18.590;2022-12-18T18:56:11;18.90;;;8.43;;
16727;SDS011;8482;54.396;18.590;2022-12-18T18:58:42;21.10;;;8.73;;
16727;SDS011;8482;54.396;18.590;2022-12-18T19:01:13;20.50;;;8.53;;
16727;SDS011;8482;54.396;18.590;2022-12-18T19:03:45;23.50;;;9.83;;
16727;SDS011;8482;54.396;18.590;2022-12-18T19:06:16;20.80;;;9.50;;
16727;SDS011;8482;54.396;18.590;2022-12-18T19:08:48;18.77;;;9.13;;
16727;SDS011;8482;54.396;18.590;2022-12-18T19:11:15;20.50;;;9.23;;
16727;SDS011;8482;54.396;18.590;2022-12-18T19:14:02;23.17;;;9.77;;
16727;SDS011;8482;54.396;18.590;2022-12-18T19:16:31;22.30;;;9.93;;
16727;SDS011;8482;54.396;18.590;2022-12-18T19:18:58;21.53;;;10.53;;
16727;SDS011;8482;54.396;18.590;2022-12-18T19:21:24;28.10;;;11.07;;
16727;SDS011;8482;54.396;18.590;2022-12-18T19:23:51;20.97;;;10.10;;
16727;SDS011;8482;54.396;18.590;2022-12-18T19:26:17;23.17;;;10.50;;
16727;SDS011;8482;54.396;18.590;2022-12-18T19:28:44;24.27;;;10.27;;
16727;SDS011;8482;54.396;18.590;2022-12-18T19:31:11;24.43;;;10.53;;
16727;SDS011;8482;54.396;18.590;2022-12-18T19:33:41;22.30;;;10.20;;
16727;SDS011;8482;54.396;18.590;2022-12-18T19:38:37;23.60;;;10.77;;
16727;SDS011;8482;54.396;18.590;2022-12-18T19:41:04;21.83;;;9.90;;
16727;SDS011;8482;54.396;18.590;2022-12-18T19:43:32;27.63;;;11.10;;
16727;SDS011;8482;54.396;18.590;2022-12-18T19:46:04;26.10;;;11.63;;
16727;SDS011;8482;54.396;18.590;2022-12-18T19:48:32;27.53;;;11.37;;
16727;SDS011;8482;54.396;18.590;2022-12-18T19:51:03;28.33;;;11.80;;
16727;SDS011;8482;54.396;18.590;2022-12-18T19:53:33;28.83;;;11.37;;
16727;SDS011;8482;54.396;18.590;2022-12-18T19:56:06;25.03;;;12.43;;
16727;SDS011;8482;54.396;18.590;2022-12-18T19:58:34;31.15;;;14.40;;
16727;SDS011;8482;54.396;18.590;2022-12-18T20:01:01;28.07;;;11.77;;
16727;SDS011;8482;54.396;18.590;2022-12-18T20:03:27;30.57;;;13.03;;
16727;SDS011;8482;54.396;18.590;2022-12-18T20:05:53;24.20;;;11.60;;
16727;SDS011;8482;54.396;18.590;2022-12-18T20:08:19;28.23;;;12.77;;
16727;SDS011;8482;54.396;18.590;2022-12-18T20:10:45;29.93;;;12.13;;
16727;SDS011;8482;54.396;18.590;2022-12-18T20:13:16;28.43;;;12.83;;
16727;SDS011;8482;54.396;18.590;2022-12-18T20:15:42;28.80;;;12.53;;
16727;SDS011;8482;54.396;18.590;2022-12-18T20:18:08;34.07;;;12.63;;
16727;SDS011;8482;54.396;18.590;2022-12-18T20:20:35;32.20;;;12.57;;
16727;SDS011;8482;54.396;18.590;2022-12-18T20:23:01;31.20;;;13.10;;
16727;SDS011;8482;54.396;18.590;2022-12-18T20:25:28;30.80;;;12.80;;
16727;SDS011;8482;54.396;18.590;2022-12-18T20:27:57;34.00;;;14.03;;
16727;SDS011;8482;54.396;18.590;2022-12-18T20:30:24;39.20;;;14.47;;
16727;SDS011;8482;54.396;18.590;2022-12-18T20:32:50;31.10;;;13.57;;
16727;SDS011;8482;54.396;18.590;2022-12-18T20:35:16;30.90;;;13.37;;
16727;SDS011;8482;54.396;18.590;2022-12-18T20:37:42;32.70;;;12.87;;
16727;SDS011;8482;54.396;18.590;2022-12-18T20:40:09;32.00;;;13.50;;
16727;SDS011;8482;54.396;18.590;2022-12-18T20:42:38;29.80;;;13.90;;
16727;SDS011;8482;54.396;18.590;2022-12-18T20:45:04;29.10;;;12.53;;
16727;SDS011;8482;54.396;18.590;2022-12-18T20:47:31;29.17;;;12.10;;
16727;SDS011;8482;54.396;18.590;2022-12-18T20:49:58;29.93;;;12.80;;
16727;SDS011;8482;54.396;18.590;2022-12-18T20:52:24;28.93;;;13.20;;
16727;SDS011;8482;54.396;18.590;2022-12-18T20:54:50;27.73;;;12.37;;
16727;SDS011;8482;54.396;18.590;2022-12-18T20:57:16;28.77;;;12.20;;
16727;SDS011;8482;54.396;18.590;2022-12-18T20:59:42;29.87;;;13.80;;
16727;SDS011;8482;54.396;18.590;2022-12-18T21:02:09;32.10;;;12.77;;
16727;SDS011;8482;54.396;18.590;2022-12-18T21:04:37;26.80;;;12.27;;
16727;SDS011;8482;54.396;18.590;2022-12-18T21:07:03;34.73;;;13.27;;
16727;SDS011;8482;54.396;18.590;2022-12-18T21:09:29;30.17;;;13.50;;
16727;SDS011;8482;54.396;18.590;2022-12-18T21:11:56;31.27;;;13.40;;
16727;SDS011;8482;54.396;18.590;2022-12-18T21:14:41;36.53;;;13.83;;
16727;SDS011;8482;54.396;18.590;2022-12-18T21:17:09;34.87;;;14.37;;
16727;SDS011;8482;54.396;18.590;2022-12-18T21:19:35;32.90;;;13.43;;
16727;SDS011;8482;54.396;18.590;2022-12-18T21:22:01;33.97;;;13.70;;
16727;SDS011;8482;54.396;18.590;2022-12-18T21:24:28;31.03;;;13.37;;
16727;SDS011;8482;54.396;18.590;2022-12-18T21:26:54;29.63;;;13.63;;
16727;SDS011;8482;54.396;18.590;2022-12-18T21:29:21;33.30;;;14.30;;
16727;SDS011;8482;54.396;18.590;2022-12-18T21:31:50;34.97;;;14.17;;
16727;SDS011;8482;54.396;18.590;2022-12-18T21:34:22;34.53;;;13.90;;
16727;SDS011;8482;54.396;18.590;2022-12-18T21:36:52;37.27;;;14.17;;
16727;SDS011;8482;54.396;18.590;2022-12-18T21:39:20;38.57;;;15.17;;
16727;SDS011;8482;54.396;18.590;2022-12-18T21:41:47;32.77;;;13.27;;
16727;SDS011;8482;54.396;18.590;2022-12-18T21:44:32;29.50;;;12.57;;
16727;SDS011;8482;54.396;18.590;2022-12-18T21:46:58;32.30;;;12.90;;
16727;SDS011;8482;54.396;18.590;2022-12-18T21:49:24;33.93;;;12.87;;
16727;SDS011;8482;54.396;18.590;2022-12-18T21:51:51;32.80;;;12.37;;
16727;SDS011;8482;54.396;18.590;2022-12-18T21:54:20;31.43;;;14.10;;
16727;SDS011;8482;54.396;18.590;2022-12-18T21:56:51;33.53;;;14.30;;
16727;SDS011;8482;54.396;18.590;2022-12-18T21:59:19;34.47;;;13.00;;
16727;SDS011;8482;54.396;18.590;2022-12-18T22:02:02;31.47;;;13.80;;
16727;SDS011;8482;54.396;18.590;2022-12-18T22:04:31;34.13;;;14.13;;
16727;SDS011;8482;54.396;18.590;2022-12-18T22:06:57;31.97;;;14.00;;
16727;SDS011;8482;54.396;18.590;2022-12-18T22:09:23;30.80;;;13.57;;
16727;SDS011;8482;54.396;18.590;2022-12-18T22:11:50;33.07;;;13.50;;
16727;SDS011;8482;54.396;18.590;2022-12-18T22:14:16;31.70;;;12.63;;
16727;SDS011;8482;54.396;18.590;2022-12-18T22:16:44;33.73;;;14.53;;
16727;SDS011;8482;54.396;18.590;2022-12-18T22:19:10;33.53;;;13.73;;
16727;SDS011;8482;54.396;18.590;2022-12-18T22:21:38;36.90;;;13.70;;
16727;SDS011;8482;54.396;18.590;2022-12-18T22:24:09;30.20;;;13.13;;
16727;SDS011;8482;54.396;18.590;2022-12-18T22:26:47;32.87;;;13.73;;
16727;SDS011;8482;54.396;18.590;2022-12-18T22:29:16;32.33;;;13.77;;
16727;SDS011;8482;54.396;18.590;2022-12-18T22:32:07;28.23;;;13.17;;
16727;SDS011;8482;54.396;18.590;2022-12-18T22:34:36;30.37;;;13.00;;
16727;SDS011;8482;54.396;18.590;2022-12-18T22:37:03;33.43;;;13.30;;
16727;SDS011;8482;54.396;18.590;2022-12-18T22:39:29;36.20;;;13.83;;
